sensor_id;sensor_type;location;lat;lon;timestamp;temperature;humidity
35645;DHT22;21764;52.042;6.830;2023-05-14T00:01:24;13.70;88.00
35645;DHT22;21764;52.042;6.830;2023-05-14T00:06:24;13.60;88.20
35645;DHT22;21764;52.042;6.830;2023-05-14T00:11:25;13.50;88.60
35645;DHT22;21764;52.042;6.830;2023-05-14T00:16:26;13.50;88.70
35645;DHT22;21764;52.042;6.830;2023-05-14T00:21:26;13.40;88.80
35645;DHT22;21764;52.042;6.830;2023-05-14T00:26:27;13.30;89.50
35645;DHT22;21764;52.042;6.830;2023-05-14T00:31:27;13.20;89.90
35645;DHT22;21764;52.042;6.830;2023-05-14T00:36:28;13.20;89.80
35645;DHT22;21764;52.042;6.830;2023-05-14T00:41:29;13.10;90.30
35645;DHT22;21764;52.042;6.830;2023-05-14T00:46:29;12.90;90.60
35645;DHT22;21764;52.042;6.830;2023-05-14T00:51:30;12.80;90.90
35645;DHT22;21764;52.042;6.830;2023-05-14T00:56:31;12.80;91.40
35645;DHT22;21764;52.042;6.830;2023-05-14T01:01:32;12.60;91.60
35645;DHT22;21764;52.042;6.830;2023-05-14T01:17:16;12.50;92.80
35645;DHT22;21764;52.042;6.830;2023-05-14T01:22:19;12.40;93.10
35645;DHT22;21764;52.042;6.830;2023-05-14T01:27:37;12.30;93.40
35645;DHT22;21764;52.042;6.830;2023-05-14T01:32:45;12.20;93.70
35645;DHT22;21764;52.042;6.830;2023-05-14T01:37:47;12.10;94.20
35645;DHT22;21764;52.042;6.830;2023-05-14T01:42:50;12.10;94.60
35645;DHT22;21764;52.042;6.830;2023-05-14T01:47:53;12.00;94.90
35645;DHT22;21764;52.042;6.830;2023-05-14T01:52:54;11.90;95.20
35645;DHT22;21764;52.042;6.830;2023-05-14T01:57:55;11.80;95.70
35645;DHT22;21764;52.042;6.830;2023-05-14T02:02:56;11.80;96.00
35645;DHT22;21764;52.042;6.830;2023-05-14T02:07:57;11.70;96.40
35645;DHT22;21764;52.042;6.830;2023-05-14T02:12:57;11.60;96.70
35645;DHT22;21764;52.042;6.830;2023-05-14T02:17:58;11.60;97.10
35645;DHT22;21764;52.042;6.830;2023-05-14T02:22:58;11.50;97.30
35645;DHT22;21764;52.042;6.830;2023-05-14T02:27:59;11.50;97.50
35645;DHT22;21764;52.042;6.830;2023-05-14T02:33:00;11.50;97.60
35645;DHT22;21764;52.042;6.830;2023-05-14T02:38:00;11.30;98.00
35645;DHT22;21764;52.042;6.830;2023-05-14T02:43:01;11.30;98.30
35645;DHT22;21764;52.042;6.830;2023-05-14T02:48:01;11.30;98.50
35645;DHT22;21764;52.042;6.830;2023-05-14T02:53:02;11.30;98.40
35645;DHT22;21764;52.042;6.830;2023-05-14T02:58:03;11.30;98.70
35645;DHT22;21764;52.042;6.830;2023-05-14T03:03:03;11.30;98.70
35645;DHT22;21764;52.042;6.830;2023-05-14T03:08:04;11.30;98.70
35645;DHT22;21764;52.042;6.830;2023-05-14T03:13:06;11.30;98.90
35645;DHT22;21764;52.042;6.830;2023-05-14T03:18:06;11.20;99.10
35645;DHT22;21764;52.042;6.830;2023-05-14T03:23:07;11.30;99.50
35645;DHT22;21764;52.042;6.830;2023-05-14T03:28:08;11.10;99.70
35645;DHT22;21764;52.042;6.830;2023-05-14T03:33:09;11.20;99.90
35645;DHT22;21764;52.042;6.830;2023-05-14T03:38:09;11.20;99.90
35645;DHT22;21764;52.042;6.830;2023-05-14T03:43:10;11.20;99.90
35645;DHT22;21764;52.042;6.830;2023-05-14T03:48:11;11.20;99.90
35645;DHT22;21764;52.042;6.830;2023-05-14T03:53:11;11.30;99.90
35645;DHT22;21764;52.042;6.830;2023-05-14T03:58:12;11.20;99.90
35645;DHT22;21764;52.042;6.830;2023-05-14T04:03:13;11.30;99.90
35645;DHT22;21764;52.042;6.830;2023-05-14T04:08:14;11.40;99.90
35645;DHT22;21764;52.042;6.830;2023-05-14T04:13:14;11.70;99.70
35645;DHT22;21764;52.042;6.830;2023-05-14T04:18:15;11.70;99.60
35645;DHT22;21764;52.042;6.830;2023-05-14T04:23:16;11.60;99.70
35645;DHT22;21764;52.042;6.830;2023-05-14T04:28:17;11.60;99.80
35645;DHT22;21764;52.042;6.830;2023-05-14T04:33:17;11.60;99.80
35645;DHT22;21764;52.042;6.830;2023-05-14T04:38:18;11.90;99.50
35645;DHT22;21764;52.042;6.830;2023-05-14T04:43:19;12.60;98.40
35645;DHT22;21764;52.042;6.830;2023-05-14T04:48:19;13.30;97.00
35645;DHT22;21764;52.042;6.830;2023-05-14T04:53:21;13.80;96.00
35645;DHT22;21764;52.042;6.830;2023-05-14T04:58:21;14.60;94.50
35645;DHT22;21764;52.042;6.830;2023-05-14T05:03:23;15.40;93.00
35645;DHT22;21764;52.042;6.830;2023-05-14T05:08:25;16.30;91.30
35645;DHT22;21764;52.042;6.830;2023-05-14T05:13:26;16.30;90.30
35645;DHT22;21764;52.042;6.830;2023-05-14T05:18:26;15.60;91.50
35645;DHT22;21764;52.042;6.830;2023-05-14T05:23:27;14.90;92.50
35645;DHT22;21764;52.042;6.830;2023-05-14T05:28:28;14.80;93.00
35645;DHT22;21764;52.042;6.830;2023-05-14T05:33:28;16.20;90.80
35645;DHT22;21764;52.042;6.830;2023-05-14T05:38:29;16.20;91.00
35645;DHT22;21764;52.042;6.830;2023-05-14T05:43:29;16.10;90.90
35645;DHT22;21764;52.042;6.830;2023-05-14T05:48:30;15.90;91.20
35645;DHT22;21764;52.042;6.830;2023-05-14T05:53:31;15.80;91.40
35645;DHT22;21764;52.042;6.830;2023-05-14T05:58:32;16.90;90.60
35645;DHT22;21764;52.042;6.830;2023-05-14T06:03:32;18.80;83.80
35645;DHT22;21764;52.042;6.830;2023-05-14T06:08:33;21.70;75.80
35645;DHT22;21764;52.042;6.830;2023-05-14T06:13:34;22.30;73.20
35645;DHT22;21764;52.042;6.830;2023-05-14T06:18:34;20.10;77.20
35645;DHT22;21764;52.042;6.830;2023-05-14T06:23:35;19.30;78.60
35645;DHT22;21764;52.042;6.830;2023-05-14T06:28:36;19.80;78.20
35645;DHT22;21764;52.042;6.830;2023-05-14T06:33:42;20.40;76.60
35645;DHT22;21764;52.042;6.830;2023-05-14T06:38:42;20.20;76.80
35645;DHT22;21764;52.042;6.830;2023-05-14T06:43:43;21.90;72.90
35645;DHT22;21764;52.042;6.830;2023-05-14T06:48:44;22.30;71.00
35645;DHT22;21764;52.042;6.830;2023-05-14T06:53:45;25.80;63.90
35645;DHT22;21764;52.042;6.830;2023-05-14T06:58:47;28.90;58.40
35645;DHT22;21764;52.042;6.830;2023-05-14T07:03:48;33.80;49.40
35645;DHT22;21764;52.042;6.830;2023-05-14T07:08:48;29.20;51.30
35645;DHT22;21764;52.042;6.830;2023-05-14T07:13:49;32.30;50.70
35645;DHT22;21764;52.042;6.830;2023-05-14T07:18:50;34.80;47.20
35645;DHT22;21764;52.042;6.830;2023-05-14T07:23:50;34.30;44.80
35645;DHT22;21764;52.042;6.830;2023-05-14T07:28:51;33.50;47.60
35645;DHT22;21764;52.042;6.830;2023-05-14T07:33:52;32.40;48.40
35645;DHT22;21764;52.042;6.830;2023-05-14T07:38:52;30.60;49.80
35645;DHT22;21764;52.042;6.830;2023-05-14T07:43:53;32.40;47.90
35645;DHT22;21764;52.042;6.830;2023-05-14T07:48:53;36.10;41.60
35645;DHT22;21764;52.042;6.830;2023-05-14T07:53:54;33.40;43.50
35645;DHT22;21764;52.042;6.830;2023-05-14T07:58:55;32.10;45.60
35645;DHT22;21764;52.042;6.830;2023-05-14T08:03:56;31.80;43.50
35645;DHT22;21764;52.042;6.830;2023-05-14T08:08:56;32.30;41.40
35645;DHT22;21764;52.042;6.830;2023-05-14T08:13:57;30.80;44.80
35645;DHT22;21764;52.042;6.830;2023-05-14T08:18:58;30.80;45.80
35645;DHT22;21764;52.042;6.830;2023-05-14T08:23:58;30.60;45.50
35645;DHT22;21764;52.042;6.830;2023-05-14T08:28:59;33.20;44.70
35645;DHT22;21764;52.042;6.830;2023-05-14T08:34:00;32.10;43.80
35645;DHT22;21764;52.042;6.830;2023-05-14T08:39:00;35.10;42.80
35645;DHT22;21764;52.042;6.830;2023-05-14T08:44:12;35.80;40.40
35645;DHT22;21764;52.042;6.830;2023-05-14T08:54:31;40.80;36.30
35645;DHT22;21764;52.042;6.830;2023-05-14T08:59:32;43.10;33.30
35645;DHT22;21764;52.042;6.830;2023-05-14T09:04:32;43.70;34.10
35645;DHT22;21764;52.042;6.830;2023-05-14T09:09:34;44.70;31.30
35645;DHT22;21764;52.042;6.830;2023-05-14T09:14:34;42.60;32.60
35645;DHT22;21764;52.042;6.830;2023-05-14T09:19:35;44.10;31.00
35645;DHT22;21764;52.042;6.830;2023-05-14T09:24:38;44.90;30.50
35645;DHT22;21764;52.042;6.830;2023-05-14T09:29:39;43.80;30.10
35645;DHT22;21764;52.042;6.830;2023-05-14T09:34:40;43.00;29.40
35645;DHT22;21764;52.042;6.830;2023-05-14T09:39:40;43.70;28.90
35645;DHT22;21764;52.042;6.830;2023-05-14T09:44:41;42.60;30.00
35645;DHT22;21764;52.042;6.830;2023-05-14T09:49:41;42.50;29.60
35645;DHT22;21764;52.042;6.830;2023-05-14T09:54:42;42.30;29.30
35645;DHT22;21764;52.042;6.830;2023-05-14T09:59:43;42.80;29.40
35645;DHT22;21764;52.042;6.830;2023-05-14T10:04:56;43.40;28.80
35645;DHT22;21764;52.042;6.830;2023-05-14T10:10:06;43.30;28.60
35645;DHT22;21764;52.042;6.830;2023-05-14T10:15:16;43.70;28.60
35645;DHT22;21764;52.042;6.830;2023-05-14T10:20:18;40.70;30.70
35645;DHT22;21764;52.042;6.830;2023-05-14T10:25:19;42.70;29.30
35645;DHT22;21764;52.042;6.830;2023-05-14T10:30:21;41.90;29.10
35645;DHT22;21764;52.042;6.830;2023-05-14T10:35:24;42.00;29.00
35645;DHT22;21764;52.042;6.830;2023-05-14T10:40:27;40.10;30.60
35645;DHT22;21764;52.042;6.830;2023-05-14T10:45:28;36.60;33.00
35645;DHT22;21764;52.042;6.830;2023-05-14T10:50:29;31.20;37.60
35645;DHT22;21764;52.042;6.830;2023-05-14T10:55:30;29.60;40.40
35645;DHT22;21764;52.042;6.830;2023-05-14T11:00:33;27.60;40.30
35645;DHT22;21764;52.042;6.830;2023-05-14T11:05:35;26.30;42.10
35645;DHT22;21764;52.042;6.830;2023-05-14T11:10:38;25.90;43.70
35645;DHT22;21764;52.042;6.830;2023-05-14T11:15:38;26.90;43.40
35645;DHT22;21764;52.042;6.830;2023-05-14T11:20:46;26.20;41.20
35645;DHT22;21764;52.042;6.830;2023-05-14T11:25:47;25.60;41.60
35645;DHT22;21764;52.042;6.830;2023-05-14T11:30:49;24.60;45.00
35645;DHT22;21764;52.042;6.830;2023-05-14T11:35:49;24.20;45.30
35645;DHT22;21764;52.042;6.830;2023-05-14T11:40:55;24.60;45.30
35645;DHT22;21764;52.042;6.830;2023-05-14T11:45:56;25.40;44.60
35645;DHT22;21764;52.042;6.830;2023-05-14T11:50:57;26.00;41.50
35645;DHT22;21764;52.042;6.830;2023-05-14T11:55:57;26.20;42.60
35645;DHT22;21764;52.042;6.830;2023-05-14T12:00:59;26.20;42.80
35645;DHT22;21764;52.042;6.830;2023-05-14T12:06:01;26.00;41.70
35645;DHT22;21764;52.042;6.830;2023-05-14T12:11:05;25.10;43.10
35645;DHT22;21764;52.042;6.830;2023-05-14T12:16:08;24.90;43.20
35645;DHT22;21764;52.042;6.830;2023-05-14T12:21:08;25.50;43.90
35645;DHT22;21764;52.042;6.830;2023-05-14T12:26:11;25.50;44.10
35645;DHT22;21764;52.042;6.830;2023-05-14T12:31:12;25.20;42.10
35645;DHT22;21764;52.042;6.830;2023-05-14T12:36:14;24.70;44.70
35645;DHT22;21764;52.042;6.830;2023-05-14T12:41:16;25.00;41.10
35645;DHT22;21764;52.042;6.830;2023-05-14T12:46:17;24.70;41.90
35645;DHT22;21764;52.042;6.830;2023-05-14T12:51:17;25.50;43.10
35645;DHT22;21764;52.042;6.830;2023-05-14T12:56:18;25.00;40.30
35645;DHT22;21764;52.042;6.830;2023-05-14T13:01:19;25.10;42.30
35645;DHT22;21764;52.042;6.830;2023-05-14T13:06:20;25.30;42.60
35645;DHT22;21764;52.042;6.830;2023-05-14T13:11:20;25.50;42.60
35645;DHT22;21764;52.042;6.830;2023-05-14T13:16:22;25.70;41.20
35645;DHT22;21764;52.042;6.830;2023-05-14T13:21:22;25.00;42.80
35645;DHT22;21764;52.042;6.830;2023-05-14T13:26:23;25.20;42.90
35645;DHT22;21764;52.042;6.830;2023-05-14T13:31:25;25.30;42.50
35645;DHT22;21764;52.042;6.830;2023-05-14T13:36:26;25.60;42.80
35645;DHT22;21764;52.042;6.830;2023-05-14T13:41:27;25.80;42.20
35645;DHT22;21764;52.042;6.830;2023-05-14T13:46:27;25.40;42.90
35645;DHT22;21764;52.042;6.830;2023-05-14T13:51:28;25.10;44.30
35645;DHT22;21764;52.042;6.830;2023-05-14T13:56:29;25.20;43.10
35645;DHT22;21764;52.042;6.830;2023-05-14T14:01:30;25.00;42.30
35645;DHT22;21764;52.042;6.830;2023-05-14T14:06:31;25.10;40.70
35645;DHT22;21764;52.042;6.830;2023-05-14T14:11:32;25.10;40.40
35645;DHT22;21764;52.042;6.830;2023-05-14T14:16:33;25.30;40.30
35645;DHT22;21764;52.042;6.830;2023-05-14T14:21:34;25.30;42.30
35645;DHT22;21764;52.042;6.830;2023-05-14T14:26:35;25.20;46.70
35645;DHT22;21764;52.042;6.830;2023-05-14T14:31:35;25.10;47.00
35645;DHT22;21764;52.042;6.830;2023-05-14T14:36:36;24.90;47.90
35645;DHT22;21764;52.042;6.830;2023-05-14T14:41:37;24.90;47.60
35645;DHT22;21764;52.042;6.830;2023-05-14T14:46:37;24.90;49.00
35645;DHT22;21764;52.042;6.830;2023-05-14T14:51:38;24.80;48.30
35645;DHT22;21764;52.042;6.830;2023-05-14T14:56:39;24.90;48.50
35645;DHT22;21764;52.042;6.830;2023-05-14T15:01:39;24.40;48.00
35645;DHT22;21764;52.042;6.830;2023-05-14T15:06:40;24.40;49.50
35645;DHT22;21764;52.042;6.830;2023-05-14T15:11:41;24.40;48.90
35645;DHT22;21764;52.042;6.830;2023-05-14T15:16:41;24.30;49.00
35645;DHT22;21764;52.042;6.830;2023-05-14T15:21:42;24.30;49.40
35645;DHT22;21764;52.042;6.830;2023-05-14T15:26:43;24.20;49.10
35645;DHT22;21764;52.042;6.830;2023-05-14T15:31:44;24.30;47.70
35645;DHT22;21764;52.042;6.830;2023-05-14T15:36:44;24.30;49.60
35645;DHT22;21764;52.042;6.830;2023-05-14T15:41:45;24.30;48.60
35645;DHT22;21764;52.042;6.830;2023-05-14T15:46:46;24.00;47.80
35645;DHT22;21764;52.042;6.830;2023-05-14T15:51:46;24.10;47.70
35645;DHT22;21764;52.042;6.830;2023-05-14T15:56:47;24.10;48.90
35645;DHT22;21764;52.042;6.830;2023-05-14T16:01:48;24.00;49.10
35645;DHT22;21764;52.042;6.830;2023-05-14T16:06:50;23.90;50.20
35645;DHT22;21764;52.042;6.830;2023-05-14T16:11:50;23.80;49.10
35645;DHT22;21764;52.042;6.830;2023-05-14T16:16:52;23.70;49.50
35645;DHT22;21764;52.042;6.830;2023-05-14T16:21:53;23.30;49.80
35645;DHT22;21764;52.042;6.830;2023-05-14T16:26:54;23.20;49.90
35645;DHT22;21764;52.042;6.830;2023-05-14T16:31:55;23.20;50.30
35645;DHT22;21764;52.042;6.830;2023-05-14T16:36:58;23.20;50.80
35645;DHT22;21764;52.042;6.830;2023-05-14T16:41:58;23.00;50.50
35645;DHT22;21764;52.042;6.830;2023-05-14T16:46:59;22.90;49.30
35645;DHT22;21764;52.042;6.830;2023-05-14T16:52:00;22.80;50.80
35645;DHT22;21764;52.042;6.830;2023-05-14T16:57:00;22.70;50.10
35645;DHT22;21764;52.042;6.830;2023-05-14T17:02:01;22.60;50.80
35645;DHT22;21764;52.042;6.830;2023-05-14T17:07:02;22.50;51.00
35645;DHT22;21764;52.042;6.830;2023-05-14T17:12:04;22.30;50.70
35645;DHT22;21764;52.042;6.830;2023-05-14T17:17:04;22.10;50.90
35645;DHT22;21764;52.042;6.830;2023-05-14T17:22:05;21.90;51.10
35645;DHT22;21764;52.042;6.830;2023-05-14T17:27:06;21.60;52.90
35645;DHT22;21764;52.042;6.830;2023-05-14T17:32:07;21.40;53.30
35645;DHT22;21764;52.042;6.830;2023-05-14T17:37:08;21.30;53.70
35645;DHT22;21764;52.042;6.830;2023-05-14T17:42:09;21.10;55.10
35645;DHT22;21764;52.042;6.830;2023-05-14T17:47:10;20.90;55.40
35645;DHT22;21764;52.042;6.830;2023-05-14T17:52:11;20.80;56.70
35645;DHT22;21764;52.042;6.830;2023-05-14T17:57:11;20.60;56.30
35645;DHT22;21764;52.042;6.830;2023-05-14T18:02:12;20.50;57.20
35645;DHT22;21764;52.042;6.830;2023-05-14T18:07:13;20.40;58.20
35645;DHT22;21764;52.042;6.830;2023-05-14T18:12:13;20.30;58.80
35645;DHT22;21764;52.042;6.830;2023-05-14T18:17:14;20.10;59.70
35645;DHT22;21764;52.042;6.830;2023-05-14T18:22:16;20.00;60.30
35645;DHT22;21764;52.042;6.830;2023-05-14T18:27:17;19.80;60.50
35645;DHT22;21764;52.042;6.830;2023-05-14T18:32:17;19.70;60.50
35645;DHT22;21764;52.042;6.830;2023-05-14T18:37:18;19.50;61.40
35645;DHT22;21764;52.042;6.830;2023-05-14T18:42:19;19.40;61.80
35645;DHT22;21764;52.042;6.830;2023-05-14T18:47:20;19.30;62.20
35645;DHT22;21764;52.042;6.830;2023-05-14T18:52:20;19.20;62.60
35645;DHT22;21764;52.042;6.830;2023-05-14T18:57:28;19.00;63.40
35645;DHT22;21764;52.042;6.830;2023-05-14T19:02:31;18.90;64.00
35645;DHT22;21764;52.042;6.830;2023-05-14T19:07:32;18.80;65.00
35645;DHT22;21764;52.042;6.830;2023-05-14T19:12:32;18.70;65.50
35645;DHT22;21764;52.042;6.830;2023-05-14T19:17:33;18.60;66.80
35645;DHT22;21764;52.042;6.830;2023-05-14T19:22:34;18.50;65.80
35645;DHT22;21764;52.042;6.830;2023-05-14T19:27:36;18.40;66.90
35645;DHT22;21764;52.042;6.830;2023-05-14T19:32:37;18.30;67.80
35645;DHT22;21764;52.042;6.830;2023-05-14T19:37:37;18.10;67.90
35645;DHT22;21764;52.042;6.830;2023-05-14T19:42:38;18.00;68.70
35645;DHT22;21764;52.042;6.830;2023-05-14T19:47:39;17.90;69.40
35645;DHT22;21764;52.042;6.830;2023-05-14T19:52:39;17.90;69.40
35645;DHT22;21764;52.042;6.830;2023-05-14T19:57:40;17.80;69.80
35645;DHT22;21764;52.042;6.830;2023-05-14T20:02:41;17.70;70.00
35645;DHT22;21764;52.042;6.830;2023-05-14T20:07:42;17.60;70.00
35645;DHT22;21764;52.042;6.830;2023-05-14T20:12:43;17.60;70.30
35645;DHT22;21764;52.042;6.830;2023-05-14T20:17:43;17.50;71.20
35645;DHT22;21764;52.042;6.830;2023-05-14T20:22:44;17.40;73.80
35645;DHT22;21764;52.042;6.830;2023-05-14T20:27:45;17.30;75.10
35645;DHT22;21764;52.042;6.830;2023-05-14T20:32:45;17.20;77.50
35645;DHT22;21764;52.042;6.830;2023-05-14T20:37:46;17.20;79.70
35645;DHT22;21764;52.042;6.830;2023-05-14T20:42:48;17.00;81.40
35645;DHT22;21764;52.042;6.830;2023-05-14T20:47:49;17.00;83.70
35645;DHT22;21764;52.042;6.830;2023-05-14T20:52:50;16.90;85.60
35645;DHT22;21764;52.042;6.830;2023-05-14T20:57:51;16.80;87.80
35645;DHT22;21764;52.042;6.830;2023-05-14T21:02:51;16.80;89.30
35645;DHT22;21764;52.042;6.830;2023-05-14T21:07:52;16.80;90.60
35645;DHT22;21764;52.042;6.830;2023-05-14T21:12:53;16.70;91.50
35645;DHT22;21764;52.042;6.830;2023-05-14T21:17:53;16.60;92.80
35645;DHT22;21764;52.042;6.830;2023-05-14T21:22:54;16.50;93.80
35645;DHT22;21764;52.042;6.830;2023-05-14T21:27:55;16.50;94.60
35645;DHT22;21764;52.042;6.830;2023-05-14T21:32:56;16.40;95.40
35645;DHT22;21764;52.042;6.830;2023-05-14T21:37:56;16.40;96.10
35645;DHT22;21764;52.042;6.830;2023-05-14T21:42:57;16.30;96.50
35645;DHT22;21764;52.042;6.830;2023-05-14T21:47:58;16.20;97.00
35645;DHT22;21764;52.042;6.830;2023-05-14T21:52:59;16.10;97.10
35645;DHT22;21764;52.042;6.830;2023-05-14T21:57:59;15.90;97.20
35645;DHT22;21764;52.042;6.830;2023-05-14T22:03:01;15.80;98.20
35645;DHT22;21764;52.042;6.830;2023-05-14T22:08:03;15.70;98.30
35645;DHT22;21764;52.042;6.830;2023-05-14T22:13:03;15.60;99.20
35645;DHT22;21764;52.042;6.830;2023-05-14T22:18:04;15.50;99.80
35645;DHT22;21764;52.042;6.830;2023-05-14T22:23:06;15.30;99.90
35645;DHT22;21764;52.042;6.830;2023-05-14T22:28:06;15.30;99.90
35645;DHT22;21764;52.042;6.830;2023-05-14T22:33:07;15.20;99.90
35645;DHT22;21764;52.042;6.830;2023-05-14T22:38:07;15.10;99.90
35645;DHT22;21764;52.042;6.830;2023-05-14T22:43:08;15.00;99.90
35645;DHT22;21764;52.042;6.830;2023-05-14T22:48:09;14.90;99.90
35645;DHT22;21764;52.042;6.830;2023-05-14T22:53:09;14.80;99.90
35645;DHT22;21764;52.042;6.830;2023-05-14T22:58:10;14.70;99.90
35645;DHT22;21764;52.042;6.830;2023-05-14T23:03:11;14.60;99.90
35645;DHT22;21764;52.042;6.830;2023-05-14T23:08:11;14.50;99.90
35645;DHT22;21764;52.042;6.830;2023-05-14T23:13:12;14.40;99.90
35645;DHT22;21764;52.042;6.830;2023-05-14T23:18:13;14.40;99.90
35645;DHT22;21764;52.042;6.830;2023-05-14T23:23:13;14.30;99.90
35645;DHT22;21764;52.042;6.830;2023-05-14T23:28:14;14.30;99.90
35645;DHT22;21764;52.042;6.830;2023-05-14T23:33:15;14.20;99.90
35645;DHT22;21764;52.042;6.830;2023-05-14T23:38:16;14.10;99.90
35645;DHT22;21764;52.042;6.830;2023-05-14T23:43:16;14.10;99.90
35645;DHT22;21764;52.042;6.830;2023-05-14T23:48:17;14.00;99.90
35645;DHT22;21764;52.042;6.830;2023-05-14T23:53:18;13.90;99.90
35645;DHT22;21764;52.042;6.830;2023-05-14T23:58:19;13.90;99.90
